Temp: 13.5°C   Hum: 84%
  Wind: 2.9mph   Dir: WNW (282°)
  Rain: 0.0mm Rate: 0.0mm/hr
  Pressure: 1007.5mb

Historic data

Bath Spa Weather Station Historical Data
Daily Summary for October 29, 2021 Units:  Metric    English   Both
Daily Weekly Monthly Yearly Custom
  High: Low: Average:
Temperature: 14.6 °C 10.2 °C 12.5 °C
Dew Point: 13.6 °C 8.3 °C 10.7 °C
Humidity: 93% 75% 86%
Wind Speed: 22.2km/h 1.4km/h 9.7km/h
Wind Gust: 51.5km/h - -
Wind- - SSW
Pressure: 999.2 hPa 992.4 hPa -
Precipitation: 8.89 mm    
Historical Graphs
 
 
Tabular Data for October 29, 2021
Time Temperature Dew Point Pressure Wind Wind Speed Wind Gust Humidity Rainfall Rate (Hourly) solar
00:09 14.6 °C 13.6 °C 998.9 hPa South 7.9 km/h 24.1 km/h 91% 0.25 mm 0 W/m2
00:14 14.6 °C 13.6 °C 998.5 hPa South 12.6 km/h 20.9 km/h 91% 0.25 mm 0 W/m2
00:19 14.6 °C 13.6 °C 998.5 hPa South 9.3 km/h 20.9 km/h 91% 0.25 mm 0 W/m2
00:24 14.6 °C 13.6 °C 998.5 hPa South 14.3 km/h 25.7 km/h 91% 0.76 mm 0 W/m2
00:29 14.4 °C 13.4 °C 998.5 hPa South 10.6 km/h 24.1 km/h 91% 1.52 mm 0 W/m2
00:34 14.3 °C 13.5 °C 998.5 hPa SSW 9.7 km/h 24.1 km/h 92% 2.29 mm 0 W/m2
00:39 14.3 °C 13.4 °C 998.5 hPa SSW 9 km/h 17.7 km/h 92% 2.54 mm 0 W/m2
00:44 14.1 °C 13.3 °C 998.5 hPa SSW 6.4 km/h 17.7 km/h 92% 3.05 mm 0 W/m2
00:49 14.1 °C 13.3 °C 998.2 hPa SSW 4.7 km/h 11.3 km/h 92% 3.05 mm 0 W/m2
00:53 14.1 °C 13.3 °C 998.2 hPa SSE 6.4 km/h 14.5 km/h 92% 3.05 mm 0 W/m2
00:59 14.1 °C 13.3 °C 997.9 hPa South 8.4 km/h 20.9 km/h 92% 3.3 mm 0 W/m2
01:04 14.1 °C 13.4 °C 997.9 hPa South 9 km/h 17.7 km/h 92.4% 3.81 mm 0 W/m2
01:09 14.1 °C 13.5 °C 997.9 hPa South 11.6 km/h 24.1 km/h 93% 3.81 mm 0 W/m2
01:14 14.2 °C 13.6 °C 997.9 hPa South 11.4 km/h 24.1 km/h 93% 3.81 mm 0 W/m2
01:19 14.1 °C 13.4 °C 997.9 hPa South 16.1 km/h 46.7 km/h 92.8% 4.06 mm 0 W/m2
01:24 14.1 °C 13.3 °C 997.9 hPa South 16.7 km/h 32.2 km/h 92% 4.06 mm 0 W/m2
01:29 14.1 °C 13.2 °C 997.9 hPa SSW 10.1 km/h 29 km/h 91.4% 3.05 mm 0 W/m2
01:34 14.1 °C 13.1 °C 997.9 hPa South 10.8 km/h 24.1 km/h 91% 2.29 mm 0 W/m2
01:39 14.1 °C 13.1 °C 997.5 hPa SSW 13.5 km/h 25.7 km/h 91% 1.78 mm 0 W/m2
01:44 14.1 °C 13 °C 997.5 hPa SSW 8.2 km/h 25.7 km/h 90% 1.27 mm 0 W/m2
01:49 14.1 °C 13 °C 997.2 hPa South 9.2 km/h 16.1 km/h 90% 1.02 mm 0 W/m2
01:54 14 °C 12.9 °C 997.2 hPa South 7.7 km/h 19.3 km/h 90% 1.02 mm 0 W/m2
01:59 14.1 °C 12.9 °C 997.2 hPa SSE 10.3 km/h 16.1 km/h 90% 0.76 mm 0 W/m2
02:04 14 °C 12.9 °C 996.8 hPa SSE 10.9 km/h 16.1 km/h 90% 0.51 mm 0 W/m2
02:09 14.1 °C 12.9 °C 996.8 hPa SSE 12.9 km/h 20.9 km/h 90% 0.51 mm 0 W/m2
02:14 14.1 °C 13 °C 996.8 hPa SSE 13.2 km/h 20.9 km/h 90% 0.51 mm 0 W/m2
02:19 14.1 °C 13 °C 996.8 hPa South 6.8 km/h 22.5 km/h 90% 0.51 mm 0 W/m2
02:24 14.1 °C 13 °C 996.5 hPa South 15.4 km/h 27.4 km/h 90% 0.25 mm 0 W/m2
02:29 14.1 °C 13 °C 996.5 hPa SSE 12.9 km/h 22.5 km/h 90% 0.25 mm 0 W/m2
02:34 14.1 °C 13 °C 996.5 hPa South 15.1 km/h 27.4 km/h 90% 0.51 mm 0 W/m2
02:39 14.1 °C 12.9 °C 996.5 hPa South 17.4 km/h 33.8 km/h 90% 0.51 mm 0 W/m2
02:44 14 °C 12.9 °C 996.2 hPa SSE 19 km/h 30.6 km/h 90% 0.51 mm 0 W/m2
02:49 13.9 °C 12.8 °C 996.2 hPa SSE 14.2 km/h 32.2 km/h 90% 0.76 mm 0 W/m2
02:54 13.8 °C 12.7 °C 996.2 hPa South 18.7 km/h 32.2 km/h 90% 1.02 mm 0 W/m2
02:59 13.7 °C 12.6 °C 995.8 hPa South 17.7 km/h 37 km/h 90% 1.02 mm 0 W/m2
03:04 13.6 °C 12.5 °C 995.8 hPa SSE 18.2 km/h 32.2 km/h 90% 1.27 mm 0 W/m2
03:09 13.5 °C 12.4 °C 995.8 hPa SSE 13.7 km/h 32.2 km/h 90% 1.27 mm 0 W/m2
03:14 13.4 °C 12.2 °C 995.8 hPa South 22.2 km/h 51.5 km/h 89.6% 1.27 mm 0 W/m2
03:19 13.4 °C 12.1 °C 995.5 hPa SSE 19 km/h 35.4 km/h 89% 1.27 mm 0 W/m2
03:24 13.3 °C 12 °C 995.5 hPa SSE 14.2 km/h 33.8 km/h 89% 1.27 mm 0 W/m2
03:29 13.3 °C 12 °C 995.1 hPa SSE 14 km/h 27.4 km/h 89% 1.27 mm 0 W/m2
03:34 13.2 °C 11.9 °C 995.1 hPa SSE 18.7 km/h 37 km/h 89% 1.27 mm 0 W/m2
03:39 13.2 °C 11.9 °C 995.1 hPa SSE 14.6 km/h 37 km/h 89% 1.27 mm 0 W/m2
03:44 13.2 °C 12 °C 994.8 hPa SSE 18.3 km/h 32.2 km/h 89.6% 1.02 mm 0 W/m2
03:49 13.2 °C 12.1 °C 994.8 hPa South 12.2 km/h 37 km/h 89.8% 0.76 mm 0 W/m2
03:54 13.1 °C 11.8 °C 994.8 hPa South 20 km/h 33.8 km/h 89.2% 1.02 mm 0 W/m2
03:59 13.1 °C 12 °C 994.8 hPa South 20.6 km/h 35.4 km/h 90% 0.76 mm 0 W/m2
04:04 13.1 °C 12 °C 994.8 hPa South 18.3 km/h 38.6 km/h 90% 0.76 mm 0 W/m2
04:09 13 °C 11.9 °C 994.8 hPa South 11.3 km/h 25.7 km/h 90% 0.51 mm 0 W/m2
04:14 13 °C 11.9 °C 994.5 hPa South 13.2 km/h 33.8 km/h 90% 0.51 mm 0 W/m2
04:19 13 °C 12 °C 994.5 hPa SSE 12.1 km/h 22.5 km/h 90.4% 0.51 mm 0 W/m2
04:24 13.1 °C 12.2 °C 994.1 hPa South 9.7 km/h 35.4 km/h 90.8% 0.51 mm 0 W/m2
04:29 13.2 °C 12.1 °C 994.1 hPa South 19.6 km/h 38.6 km/h 90% 0.51 mm 0 W/m2
04:34 13.2 °C 12.1 °C 994.1 hPa South 15.8 km/h 25.7 km/h 90% 0.51 mm 0 W/m2
04:39 13.2 °C 12.1 °C 994.1 hPa South 14.5 km/h 37 km/h 90% 0.51 mm 0 W/m2
04:44 13.2 °C 12.1 °C 994.1 hPa SSE 18.2 km/h 38.6 km/h 90% 0.51 mm 0 W/m2
04:49 13.3 °C 12.2 °C 994.1 hPa South 21.2 km/h 38.6 km/h 90% 0.51 mm 0 W/m2
04:54 13.3 °C 12.2 °C 994.1 hPa South 16.3 km/h 29 km/h 90% 0.51 mm 0 W/m2
04:59 13.2 °C 12.1 °C 994.1 hPa South 13.8 km/h 30.6 km/h 90% 0.51 mm 0 W/m2
05:04 13.2 °C 12.1 °C 994.1 hPa SSE 14.2 km/h 27.4 km/h 90% 0.51 mm 0 W/m2
05:09 13.2 °C 12.1 °C 993.8 hPa SSE 12.1 km/h 27.4 km/h 90% 0.51 mm 0 W/m2
05:14 13.2 °C 12.1 °C 993.8 hPa South 17.1 km/h 40.2 km/h 90% 0.51 mm 0 W/m2
05:19 13.2 °C 12.1 °C 993.8 hPa South 15.8 km/h 25.7 km/h 90% 0.25 mm 0 W/m2
05:24 13.2 °C 12.1 °C 993.8 hPa SSE 9 km/h 22.5 km/h 90% 0.25 mm 0 W/m2
05:29 13.1 °C 12 °C 993.5 hPa SSE 7.9 km/h 16.1 km/h 90% 0.25 mm 0 W/m2
05:34 13.1 °C 12.1 °C 993.5 hPa SSE 12.9 km/h 25.7 km/h 90.6% 0.25 mm 0 W/m2
05:39 13.2 °C 12.2 °C 993.5 hPa SSE 12.1 km/h 29 km/h 91% 0.25 mm 0 W/m2
05:44 13.3 °C 12.3 °C 993.5 hPa South 12.7 km/h 24.1 km/h 90.6% 0.25 mm 0 W/m2
05:49 13.3 °C 12.3 °C 993.5 hPa SSE 11.9 km/h 22.5 km/h 90.2% 0.25 mm 0 W/m2
05:54 13.3 °C 12.2 °C 993.5 hPa SSE 15.4 km/h 25.7 km/h 90% 0 mm 0 W/m2
05:59 13.5 °C 12.4 °C 993.5 hPa South 10 km/h 27.4 km/h 90% 0 mm 0 W/m2
06:04 13.6 °C 12.5 °C 993.5 hPa SSE 10.6 km/h 24.1 km/h 90% 0 mm 0 W/m2
06:09 13.6 °C 12.5 °C 993.5 hPa South 13.5 km/h 27.4 km/h 90% 0 mm 0 W/m2
06:13 13.8 °C 12.4 °C 993.5 hPa SSE 12.6 km/h 30.6 km/h 89% 0 mm 0 W/m2
06:19 13.8 °C 12.4 °C 993.1 hPa SSE 11.9 km/h 24.1 km/h 88.8% 0 mm 0 W/m2
06:24 13.8 °C 12.4 °C 993.1 hPa SSE 11.9 km/h 20.9 km/h 88.4% 0 mm 0 W/m2
06:28 13.8 °C 12.3 °C 993.1 hPa SSE 12.7 km/h 20.9 km/h 88% 0 mm 0 W/m2
06:34 13.8 °C 12.3 °C 993.1 hPa SSW 7.6 km/h 22.5 km/h 88% 0 mm 0 W/m2
06:39 13.8 °C 12.3 °C 992.8 hPa South 13.5 km/h 22.5 km/h 88.2% 0 mm 0 W/m2
06:44 13.9 °C 12.4 °C 992.8 hPa SSE 14.8 km/h 33.8 km/h 88.4% 0 mm 0 W/m2
06:49 13.9 °C 12.4 °C 992.8 hPa SSE 11.9 km/h 33.8 km/h 88% 0 mm 0 W/m2
06:54 13.9 °C 12.4 °C 992.8 hPa South 10 km/h 22.5 km/h 88% 0 mm 0 W/m2
06:59 13.9 °C 12.4 °C 992.8 hPa South 10.6 km/h 19.3 km/h 88% 0 mm 0 W/m2
07:04 13.9 °C 12.4 °C 992.4 hPa South 10.3 km/h 22.5 km/h 88% 0 mm 0 W/m2
07:09 13.9 °C 12.4 °C 992.4 hPa South 9.2 km/h 22.5 km/h 88% 0 mm 0 W/m2
07:14 13.8 °C 12.3 °C 992.8 hPa South 7.6 km/h 16.1 km/h 88% 0 mm 0 W/m2
07:19 13.8 °C 12.3 °C 992.8 hPa SSW 10.5 km/h 19.3 km/h 88% 0 mm 0 W/m2
07:24 13.8 °C 12.3 °C 992.4 hPa South 6.3 km/h 19.3 km/h 88% 0.51 mm 0 W/m2
07:29 13.7 °C 12.2 °C 992.4 hPa SSW 9.7 km/h 19.3 km/h 88% 0.51 mm 0 W/m2
07:34 13.7 °C 12.2 °C 992.4 hPa SSW 5.1 km/h 14.5 km/h 88% 0.51 mm 0 W/m2
07:39 13.6 °C 12.1 °C 992.4 hPa SSW 3.4 km/h 11.3 km/h 88% 0.51 mm 0 W/m2
07:44 13.6 °C 12.1 °C 992.4 hPa SSW 3.7 km/h 8 km/h 88% 0.51 mm 0 W/m2
07:49 13.4 °C 11.9 °C 992.4 hPa South 8.4 km/h 22.5 km/h 88% 0.51 mm 0 W/m2
07:54 13.4 °C 11.9 °C 992.4 hPa SW 9.3 km/h 22.5 km/h 88% 0.51 mm 0 W/m2
07:59 13.3 °C 11.8 °C 992.4 hPa SW 6.6 km/h 9.7 km/h 88% 0.51 mm 0 W/m2
08:04 13.3 °C 11.7 °C 992.4 hPa SSW 7.6 km/h 19.3 km/h 87% 0.51 mm 0 W/m2
08:09 13.2 °C 11.7 °C 992.8 hPa SW 8.7 km/h 19.3 km/h 87% 0.51 mm 5 W/m2
08:14 13.2 °C 11.6 °C 992.8 hPa SSW 4 km/h 19.3 km/h 87% 0.51 mm 7 W/m2
08:19 13.2 °C 11.6 °C 992.8 hPa SSW 6 km/h 16.1 km/h 87% 0.51 mm 9 W/m2
08:24 13.1 °C 11.5 °C 992.8 hPa SW 7.9 km/h 14.5 km/h 87% 0.51 mm 14 W/m2
08:29 13.1 °C 11.5 °C 993.1 hPa SW 6.4 km/h 14.5 km/h 87% 0 mm 25 W/m2
08:34 13.1 °C 11.5 °C 993.1 hPa SW 6.4 km/h 12.9 km/h 87% 0 mm 32 W/m2
08:39 13.1 °C 11.5 °C 993.1 hPa SSW 7.1 km/h 12.9 km/h 87% 0 mm 44 W/m2
08:44 13.1 °C 11.5 °C 993.1 hPa SW 10 km/h 20.9 km/h 87% 0 mm 42 W/m2
08:49 13.2 °C 11.4 °C 993.1 hPa SSW 10.8 km/h 20.9 km/h 86.2% 0 mm 51 W/m2
08:54 13.3 °C 11.5 °C 993.1 hPa SSW 9 km/h 24.1 km/h 86% 0 mm 77 W/m2
08:59 13.3 °C 11.3 °C 993.1 hPa South 11.9 km/h 25.7 km/h 85.2% 0 mm 120 W/m2
09:04 13.4 °C 11.4 °C 993.1 hPa South 15.4 km/h 25.7 km/h 85% 0 mm 118 W/m2
09:09 13.4 °C 11.4 °C 993.5 hPa SSW 8 km/h 27.4 km/h 85% 0 mm 135 W/m2
09:14 13.3 °C 11.3 °C 993.5 hPa SW 17.7 km/h 29 km/h 85% 0 mm 83 W/m2
09:19 13.1 °C 11.2 °C 993.8 hPa SSW 14.2 km/h 30.6 km/h 85.8% 0.25 mm 74 W/m2
09:24 12.8 °C 11.2 °C 993.8 hPa South 12.6 km/h 30.6 km/h 87% 0.51 mm 62 W/m2
09:29 12.7 °C 11.3 °C 993.8 hPa SSW 10.6 km/h 22.5 km/h 88% 0.51 mm 116 W/m2
09:34 12.6 °C 11.2 °C 993.8 hPa SSW 11.9 km/h 20.9 km/h 88.4% 0.51 mm 118 W/m2
09:39 12.7 °C 11.4 °C 993.8 hPa SSW 6 km/h 20.9 km/h 89% 0.51 mm 72 W/m2
09:44 12.7 °C 11.4 °C 993.8 hPa South 8.9 km/h 17.7 km/h 89% 0.51 mm 37 W/m2
09:49 12.7 °C 11.3 °C 993.8 hPa SSW 8.2 km/h 19.3 km/h 89% 0.51 mm 90 W/m2
09:54 12.6 °C 11.3 °C 994.1 hPa SSW 10 km/h 22.5 km/h 89% 0.51 mm 100 W/m2
09:59 12.5 °C 11.2 °C 994.1 hPa SSW 12.6 km/h 22.5 km/h 89% 0.51 mm 42 W/m2
10:04 12.3 °C 11.2 °C 994.1 hPa WSW 12.6 km/h 29 km/h 90% 0.51 mm 62 W/m2
10:09 12.1 °C 10.9 °C 994.1 hPa WSW 12.6 km/h 29 km/h 89.8% 0.51 mm 72 W/m2
10:14 11.9 °C 10.8 °C 994.5 hPa WSW 10.6 km/h 25.7 km/h 90% 0.51 mm 81 W/m2
10:19 11.9 °C 10.7 °C 994.5 hPa WSW 10.5 km/h 17.7 km/h 89.6% 0.51 mm 88 W/m2
10:24 11.8 °C 10.7 °C 994.5 hPa WSW 10 km/h 16.1 km/h 89.8% 0.51 mm 113 W/m2
10:29 11.8 °C 10.7 °C 994.8 hPa West 6.8 km/h 19.3 km/h 90% 0.51 mm 102 W/m2
10:34 11.8 °C 10.7 °C 994.8 hPa WNW 9.3 km/h 20.9 km/h 90% 0.51 mm 281 W/m2
10:39 11.9 °C 10.8 °C 994.8 hPa West 9 km/h 16.1 km/h 90% 0.51 mm 274 W/m2
10:44 12 °C 10.7 °C 994.8 hPa West 10.9 km/h 20.9 km/h 89.2% 0.51 mm 306 W/m2
10:48 12.2 °C 10.8 °C 994.8 hPa West 8.4 km/h 16.1 km/h 89% 0.51 mm 357 W/m2
10:54 12.3 °C 11 °C 994.8 hPa WSW 10.3 km/h 20.9 km/h 88.6% 0.51 mm 318 W/m2
10:59 12.4 °C 11 °C 994.8 hPa WSW 10.8 km/h 22.5 km/h 88% 0.51 mm 316 W/m2
11:04 12.6 °C 11.1 °C 994.8 hPa West 13.5 km/h 22.5 km/h 87.2% 0.25 mm 332 W/m2
11:09 12.7 °C 10.9 °C 994.8 hPa West 13.2 km/h 29 km/h 86.2% 0.25 mm 258 W/m2
11:14 12.6 °C 10.6 °C 995.1 hPa WSW 18.5 km/h 27.4 km/h 85.4% 0.25 mm 214 W/m2
11:19 12.6 °C 10.5 °C 995.1 hPa West 15.1 km/h 27.4 km/h 84.2% 0.25 mm 221 W/m2
11:24 12.6 °C 10.5 °C 995.1 hPa West 12.6 km/h 24.1 km/h 84% 0 mm 301 W/m2
11:29 12.7 °C 10.4 °C 995.1 hPa West 10.8 km/h 24.1 km/h 83.4% 0 mm 323 W/m2
11:34 12.8 °C 10.4 °C 995.1 hPa West 17.7 km/h 30.6 km/h 82.6% 0 mm 350 W/m2
11:39 12.9 °C 10.4 °C 995.1 hPa WSW 10.3 km/h 29 km/h 82% 0 mm 360 W/m2
11:44 13.1 °C 10.6 °C 995.1 hPa WSW 16.4 km/h 22.5 km/h 82% 0 mm 490 W/m2
11:49 13.2 °C 10.7 °C 995.5 hPa WSW 12.9 km/h 24.1 km/h 82% 0 mm 504 W/m2
11:54 13.4 °C 10.8 °C 995.5 hPa WSW 9.2 km/h 22.5 km/h 81.8% 0 mm 499 W/m2
11:59 13.7 °C 11.1 °C 995.5 hPa WSW 11.6 km/h 17.7 km/h 81.6% 0 mm 446 W/m2
12:04 13.6 °C 10.9 °C 995.5 hPa SW 11.9 km/h 17.7 km/h 81.2% 0 mm 204 W/m2
12:08 13.2 °C 10.7 °C 995.8 hPa SW 16.1 km/h 25.7 km/h 82% 0 mm 190 W/m2
12:14 13 °C 10.7 °C 995.8 hPa WSW 12.6 km/h 22.5 km/h 82.8% 0 mm 146 W/m2
12:19 12.8 °C 10.5 °C 995.8 hPa SW 12.9 km/h 20.9 km/h 83% 0 mm 144 W/m2
12:24 12.8 °C 10.7 °C 995.8 hPa SW 6.4 km/h 20.9 km/h 83.8% 0 mm 193 W/m2
12:29 12.8 °C 10.8 °C 995.8 hPa SW 10.3 km/h 20.9 km/h 84.8% 0 mm 190 W/m2
12:34 12.8 °C 10.7 °C 995.8 hPa SW 12.4 km/h 22.5 km/h 84% 0 mm 162 W/m2
12:39 12.8 °C 10.7 °C 996.2 hPa SW 8.9 km/h 17.7 km/h 84% 0 mm 77 W/m2
12:44 12.6 °C 10.6 °C 996.5 hPa WSW 13.2 km/h 25.7 km/h 84.6% 0.25 mm 56 W/m2
12:49 12 °C 10.2 °C 996.5 hPa SW 20.3 km/h 32.2 km/h 86% 0.76 mm 63 W/m2
12:54 11.5 °C 10 °C 996.8 hPa WSW 12.1 km/h 29 km/h 87.6% 1.02 mm 83 W/m2
12:59 11.2 °C 9.9 °C 996.8 hPa West 15.3 km/h 25.7 km/h 88.6% 1.27 mm 74 W/m2
13:04 11.2 °C 9.8 °C 996.8 hPa SW 10.9 km/h 32.2 km/h 89% 1.27 mm 139 W/m2
13:09 11.1 °C 10 °C 996.8 hPa West 13.8 km/h 20.9 km/h 90% 1.27 mm 134 W/m2
13:14 11.1 °C 9.9 °C 996.8 hPa West 17.7 km/h 25.7 km/h 89.4% 1.27 mm 139 W/m2
13:19 11.2 °C 9.8 °C 997.2 hPa West 10 km/h 25.7 km/h 89% 1.27 mm 186 W/m2
13:24 11.3 °C 10.1 °C 997.2 hPa West 11.9 km/h 25.7 km/h 89% 1.27 mm 234 W/m2
13:29 11.6 °C 10.3 °C 997.2 hPa West 14.2 km/h 20.9 km/h 89% 1.27 mm 295 W/m2
13:33 11.7 °C 10.3 °C 997.2 hPa West 14.5 km/h 29 km/h 88.5% 1.27 mm 258 W/m2
13:39 11.8 °C 10.4 °C 997.2 hPa West 13.5 km/h 22.5 km/h 88% 1.27 mm 195 W/m2
13:44 11.8 °C 10.4 °C 997.2 hPa West 17.4 km/h 33.8 km/h 88% 1.27 mm 132 W/m2
13:49 11.7 °C 10.3 °C 997.2 hPa WNW 13.5 km/h 32.2 km/h 88% 1.02 mm 459 W/m2
13:54 11.9 °C 10.5 °C 997.2 hPa West 18 km/h 27.4 km/h 88% 0.51 mm 496 W/m2
13:59 12.2 °C 10.7 °C 997.2 hPa West 10.6 km/h 27.4 km/h 88% 0.51 mm 394 W/m2
14:04 12.4 °C 10.9 °C 997.2 hPa West 14.2 km/h 20.9 km/h 87.4% 0.25 mm 429 W/m2
14:09 12.8 °C 11.1 °C 997.2 hPa West 9.8 km/h 20.9 km/h 86.4% 0.25 mm 418 W/m2
14:14 12.8 °C 10.9 °C 997.5 hPa West 13.2 km/h 27.4 km/h 84.8% 0.25 mm 394 W/m2
14:19 12.8 °C 10.4 °C 997.5 hPa West 17.7 km/h 27.4 km/h 82.4% 0.25 mm 329 W/m2
14:24 12.9 °C 10.2 °C 997.5 hPa West 11.3 km/h 22.5 km/h 81% 0.25 mm 396 W/m2
14:29 13.2 °C 10.5 °C 997.5 hPa West 9.3 km/h 17.7 km/h 81.2% 0.25 mm 352 W/m2
14:34 13.3 °C 10.8 °C 997.5 hPa West 10.1 km/h 20.9 km/h 81.6% 0.25 mm 360 W/m2
14:39 13.3 °C 10.7 °C 997.5 hPa West 8.4 km/h 17.7 km/h 81.2% 0.25 mm 327 W/m2
14:44 13.3 °C 10.6 °C 997.9 hPa WSW 12.6 km/h 20.9 km/h 80.6% 0.25 mm 318 W/m2
14:49 13.3 °C 10.2 °C 997.9 hPa West 15.4 km/h 27.4 km/h 79% 0 mm 295 W/m2
14:54 13.3 °C 10.1 °C 997.9 hPa West 10.1 km/h 27.4 km/h 78.2% 0 mm 262 W/m2
14:58 13.3 °C 9.9 °C 997.9 hPa West 16.9 km/h 24.1 km/h 77.8% 0 mm 241 W/m2
15:04 13.3 °C 9.9 °C 997.9 hPa West 7.4 km/h 24.1 km/h 77.4% 0 mm 343 W/m2
15:09 13.6 °C 10.2 °C 997.9 hPa West 7.1 km/h 14.5 km/h 78% 0 mm 323 W/m2
15:14 13.6 °C 10.1 °C 997.9 hPa WSW 9.5 km/h 16.1 km/h 77% 0 mm 209 W/m2
15:19 13.4 °C 9.9 °C 997.9 hPa West 11.6 km/h 25.7 km/h 76.8% 0 mm 243 W/m2
15:24 13.3 °C 9.6 °C 997.9 hPa West 10.9 km/h 25.7 km/h 75.6% 0 mm 253 W/m2
15:29 13.4 °C 9.6 °C 997.9 hPa West 10.9 km/h 17.7 km/h 75.6% 0 mm 281 W/m2
15:34 13.5 °C 9.7 °C 997.9 hPa WSW 7.2 km/h 17.7 km/h 75.4% 0 mm 257 W/m2
15:39 13.6 °C 9.7 °C 997.9 hPa West 9.8 km/h 16.1 km/h 75% 0 mm 281 W/m2
15:44 13.6 °C 9.7 °C 997.9 hPa WSW 10 km/h 16.1 km/h 75% 0 mm 223 W/m2
15:49 13.6 °C 9.8 °C 997.9 hPa WSW 8.9 km/h 17.7 km/h 75.2% 0 mm 197 W/m2
15:54 13.6 °C 9.7 °C 998.2 hPa WSW 8.7 km/h 17.7 km/h 75.4% 0 mm 163 W/m2
15:59 13.3 °C 9.6 °C 998.2 hPa West 6.9 km/h 16.1 km/h 75.6% 0 mm 83 W/m2
16:04 13.3 °C 9.6 °C 998.2 hPa WSW 5.8 km/h 12.9 km/h 76.2% 0 mm 79 W/m2
16:09 13.2 °C 9.7 °C 998.2 hPa WSW 7.2 km/h 12.9 km/h 77% 0 mm 81 W/m2
16:14 13.1 °C 9.6 °C 998.2 hPa WSW 4.7 km/h 12.9 km/h 77% 0 mm 83 W/m2
16:19 13.1 °C 9.7 °C 998.2 hPa WSW 4.2 km/h 8 km/h 77.8% 0 mm 84 W/m2
16:24 12.9 °C 9.6 °C 998.2 hPa WSW 6 km/h 12.9 km/h 77.8% 0 mm 97 W/m2
16:29 12.9 °C 9.6 °C 998.5 hPa WSW 8 km/h 11.3 km/h 78% 0 mm 88 W/m2
16:34 12.7 °C 9.3 °C 998.5 hPa SW 7.1 km/h 11.3 km/h 76.6% 0 mm 77 W/m2
16:39 12.7 °C 9 °C 998.5 hPa SW 6.9 km/h 14.5 km/h 75.8% 0 mm 72 W/m2
16:44 12.6 °C 8.8 °C 998.2 hPa SW 6 km/h 11.3 km/h 75% 0 mm 70 W/m2
16:49 12.6 °C 8.8 °C 998.5 hPa WSW 6.8 km/h 14.5 km/h 75% 0 mm 76 W/m2
16:54 12.6 °C 8.8 °C 998.5 hPa WSW 6.8 km/h 12.9 km/h 75% 0 mm 65 W/m2
16:59 12.5 °C 8.7 °C 998.5 hPa WSW 7.6 km/h 11.3 km/h 75% 0 mm 74 W/m2
17:04 12.6 °C 8.9 °C 998.5 hPa WSW 3.4 km/h 9.7 km/h 75.6% 0 mm 74 W/m2
17:09 12.7 °C 9.1 °C 998.5 hPa WSW 3.2 km/h 6.4 km/h 76% 0 mm 69 W/m2
17:14 12.8 °C 9.2 °C 998.5 hPa WSW 3.1 km/h 8 km/h 76% 0 mm 58 W/m2
17:19 12.7 °C 9.1 °C 998.5 hPa WSW 3.5 km/h 8 km/h 76% 0 mm 49 W/m2
17:24 12.5 °C 9.1 °C 998.5 hPa WSW 5.3 km/h 9.7 km/h 77% 0 mm 42 W/m2
17:29 12.3 °C 9 °C 998.5 hPa WSW 4.5 km/h 11.3 km/h 77.4% 0 mm 35 W/m2
17:34 12.2 °C 9 °C 998.5 hPa WSW 5 km/h 11.3 km/h 78% 0 mm 25 W/m2
17:39 12.2 °C 8.9 °C 998.5 hPa WSW 3.9 km/h 9.7 km/h 78% 0 mm 18 W/m2
17:44 12.1 °C 8.9 °C 998.5 hPa WSW 3.4 km/h 11.3 km/h 78% 0 mm 14 W/m2
17:49 12 °C 8.9 °C 998.9 hPa WSW 3.2 km/h 8 km/h 78.5% 0 mm 7 W/m2
17:54 11.9 °C 8.9 °C 998.9 hPa WSW 3.2 km/h 6.4 km/h 79% 0 mm 0 W/m2
17:59 11.8 °C 8.8 °C 998.9 hPa WSW 3.1 km/h 6.4 km/h 79% 0 mm 0 W/m2
18:04 11.7 °C 8.9 °C 998.9 hPa WSW 4.7 km/h 11.3 km/h 79.8% 0 mm 0 W/m2
18:09 11.7 °C 8.9 °C 998.9 hPa WSW 3.9 km/h 11.3 km/h 80% 0 mm 0 W/m2
18:14 11.6 °C 8.8 °C 998.9 hPa WSW 6 km/h 11.3 km/h 80.2% 0 mm 0 W/m2
18:19 11.6 °C 8.9 °C 998.9 hPa WSW 4.2 km/h 11.3 km/h 81% 0 mm 0 W/m2
18:24 11.6 °C 8.9 °C 998.9 hPa WSW 4.8 km/h 12.9 km/h 81% 0 mm 0 W/m2
18:29 11.6 °C 8.9 °C 998.9 hPa SW 5.8 km/h 14.5 km/h 81% 0 mm 0 W/m2
18:34 11.5 °C 8.8 °C 998.9 hPa SW 7.4 km/h 12.9 km/h 81% 0 mm 0 W/m2
18:39 11.4 °C 8.9 °C 998.9 hPa SW 5.3 km/h 11.3 km/h 81.6% 0 mm 0 W/m2
18:44 11.4 °C 8.9 °C 998.9 hPa SW 3.2 km/h 8 km/h 82% 0 mm 0 W/m2
18:49 11.4 °C 8.9 °C 998.9 hPa SW 6.8 km/h 14.5 km/h 82% 0 mm 0 W/m2
18:54 11.3 °C 8.8 °C 998.9 hPa SW 5.8 km/h 14.5 km/h 82% 0 mm 0 W/m2
18:59 11.3 °C 8.8 °C 999.2 hPa SW 6.3 km/h 16.1 km/h 82% 0 mm 0 W/m2
19:04 11.3 °C 8.8 °C 999.2 hPa SSW 5.6 km/h 9.7 km/h 82% 0 mm 0 W/m2
19:09 11.2 °C 8.7 °C 999.2 hPa SSW 7.2 km/h 14.5 km/h 82% 0 mm 0 W/m2
19:14 11.2 °C 8.7 °C 999.2 hPa SSW 6.3 km/h 12.9 km/h 82% 0 mm 0 W/m2
19:19 11.2 °C 8.7 °C 999.2 hPa SSW 6.6 km/h 12.9 km/h 82% 0 mm 0 W/m2
19:24 11.2 °C 8.8 °C 999.2 hPa SSW 1.4 km/h 6.4 km/h 82.2% 0 mm 0 W/m2
19:29 11.1 °C 8.7 °C 999.2 hPa SSW 3.4 km/h 6.4 km/h 82.6% 0 mm 0 W/m2
19:34 10.9 °C 8.6 °C 999.2 hPa SSW 5 km/h 8 km/h 83% 0 mm 0 W/m2
19:39 10.8 °C 8.5 °C 999.2 hPa SSW 5.1 km/h 8 km/h 83% 0 mm 0 W/m2
19:44 10.7 °C 8.6 °C 999.2 hPa SSW 6.1 km/h 8 km/h 83.6% 0 mm 0 W/m2
19:49 10.7 °C 8.6 °C 999.2 hPa SSW 4.3 km/h 8 km/h 84% 0 mm 0 W/m2
19:54 10.7 °C 8.6 °C 999.2 hPa SSW 4.3 km/h 9.7 km/h 84% 0 mm 0 W/m2
19:59 10.6 °C 8.6 °C 999.2 hPa SSW 5.8 km/h 12.9 km/h 84.2% 0 mm 0 W/m2
20:04 10.6 °C 8.7 °C 999.2 hPa SSW 3.5 km/h 12.9 km/h 85% 0 mm 0 W/m2
20:09 10.6 °C 8.7 °C 999.2 hPa SSW 1.8 km/h 6.4 km/h 85% 0 mm 0 W/m2
20:14 10.4 °C 8.6 °C 999.2 hPa SSW 4.8 km/h 8 km/h 85% 0 mm 0 W/m2
20:19 10.4 °C 8.5 °C 999.2 hPa SSW 5.1 km/h 8 km/h 85% 0 mm 0 W/m2
20:24 10.4 °C 8.5 °C 999.2 hPa SSW 5.5 km/h 8 km/h 85% 0 mm 0 W/m2
20:29 10.3 °C 8.4 °C 998.9 hPa SSW 6.4 km/h 9.7 km/h 85% 0 mm 0 W/m2
20:34 10.4 °C 8.5 °C 998.9 hPa SSW 4.8 km/h 9.7 km/h 85% 0 mm 0 W/m2
20:39 10.3 °C 8.4 °C 998.9 hPa SSW 5 km/h 8 km/h 85% 0 mm 0 W/m2
20:44 10.3 °C 8.4 °C 998.9 hPa SSW 4 km/h 8 km/h 85% 0 mm 0 W/m2
20:49 10.3 °C 8.4 °C 998.5 hPa SSW 4.2 km/h 9.7 km/h 85.2% 0 mm 0 W/m2
20:54 10.2 °C 8.5 °C 998.5 hPa SSW 3.4 km/h 9.7 km/h 86% 0 mm 0 W/m2
20:59 10.2 °C 8.5 °C 998.5 hPa SSW 4.8 km/h 8 km/h 86% 0 mm 0 W/m2
21:04 10.2 °C 8.5 °C 998.5 hPa SSW 4.3 km/h 11.3 km/h 86% 0 mm 0 W/m2
21:09 10.3 °C 8.6 °C 998.5 hPa SSW 4.5 km/h 12.9 km/h 86.2% 0 mm 0 W/m2
21:14 10.3 °C 8.7 °C 998.5 hPa SSW 5.1 km/h 12.9 km/h 86.4% 0 mm 0 W/m2
21:19 10.3 °C 8.6 °C 998.5 hPa South 5.8 km/h 16.1 km/h 86% 0 mm 0 W/m2
21:24 10.3 °C 8.6 °C 998.2 hPa South 4.7 km/h 9.7 km/h 86% 0 mm 0 W/m2
21:29 10.3 °C 8.6 °C 998.5 hPa South 4 km/h 9.7 km/h 86% 0 mm 0 W/m2
21:34 10.3 °C 8.6 °C 998.2 hPa South 3.9 km/h 9.7 km/h 86% 0 mm 0 W/m2
21:39 10.3 °C 8.6 °C 998.2 hPa South 5.8 km/h 14.5 km/h 86% 0 mm 0 W/m2
21:44 10.3 °C 8.6 °C 998.2 hPa South 6.4 km/h 14.5 km/h 86% 0 mm 0 W/m2
21:49 10.3 °C 8.6 °C 998.2 hPa South 5.6 km/h 12.9 km/h 86% 0 mm 0 W/m2
21:54 10.3 °C 8.6 °C 998.2 hPa South 4 km/h 12.9 km/h 86% 0 mm 0 W/m2
21:59 10.3 °C 8.6 °C 997.9 hPa South 7.4 km/h 12.9 km/h 86% 0 mm 0 W/m2
22:04 10.3 °C 8.6 °C 997.9 hPa South 6.6 km/h 12.9 km/h 86% 0 mm 0 W/m2
22:09 10.3 °C 8.6 °C 997.9 hPa South 5.1 km/h 12.9 km/h 86% 0 mm 0 W/m2
22:14 10.4 °C 8.6 °C 997.9 hPa SSE 10 km/h 17.7 km/h 86% 0 mm 0 W/m2
22:19 10.4 °C 8.6 °C 997.9 hPa SSE 6.8 km/h 17.7 km/h 86% 0 mm 0 W/m2
22:24 10.4 °C 8.6 °C 997.9 hPa SSE 8 km/h 12.9 km/h 86% 0 mm 0 W/m2
22:29 10.4 °C 8.6 °C 997.9 hPa SSE 8 km/h 14.5 km/h 86% 0 mm 0 W/m2
22:34 10.4 °C 8.7 °C 997.9 hPa SSE 5.6 km/h 14.5 km/h 86% 0 mm 0 W/m2
22:39 10.5 °C 8.6 °C 997.9 hPa SSE 5.8 km/h 11.3 km/h 85.2% 0 mm 0 W/m2
22:44 10.4 °C 8.5 °C 997.9 hPa SSE 6 km/h 9.7 km/h 85% 0 mm 0 W/m2
22:49 10.4 °C 8.5 °C 997.9 hPa SSE 5.8 km/h 9.7 km/h 85% 0 mm 0 W/m2
22:54 10.4 °C 8.5 °C 997.9 hPa SSE 4.3 km/h 11.3 km/h 85% 0 mm 0 W/m2
22:59 10.3 °C 8.4 °C 997.9 hPa SSE 4.3 km/h 8 km/h 85% 0 mm 0 W/m2
23:04 10.3 °C 8.4 °C 997.9 hPa SSE 5.6 km/h 8 km/h 85% 0 mm 0 W/m2
23:09 10.3 °C 8.4 °C 997.9 hPa SSE 5.1 km/h 9.7 km/h 85% 0 mm 0 W/m2
23:14 10.2 °C 8.3 °C 997.9 hPa SSE 4.3 km/h 9.7 km/h 85% 0 mm 0 W/m2
23:19 10.2 °C 8.3 °C 997.5 hPa SSE 6 km/h 11.3 km/h 85.3% 0 mm 0 W/m2
23:23 10.2 °C 8.5 °C 997.5 hPa SSE 4.3 km/h 14.5 km/h 86% 0 mm 0 W/m2
23:29 10.2 °C 8.5 °C 997.5 hPa SSE 7.1 km/h 14.5 km/h 86% 0 mm 0 W/m2
23:34 10.2 °C 8.5 °C 997.5 hPa SSE 8.4 km/h 12.9 km/h 86% 0 mm 0 W/m2
23:39 10.3 °C 8.6 °C 997.2 hPa SSE 7.1 km/h 14.5 km/h 86% 0 mm 0 W/m2
23:44 10.4 °C 8.6 °C 997.2 hPa SSE 6.8 km/h 12.9 km/h 86% 0 mm 0 W/m2
23:49 10.4 °C 8.6 °C 997.2 hPa SSE 7.6 km/h 14.5 km/h 86% 0 mm 0 W/m2
23:54 10.4 °C 8.7 °C 996.8 hPa SSE 6 km/h 12.9 km/h 86% 0 mm 0 W/m2
23:59 10.6 °C 8.8 °C 996.8 hPa SSE 7.2 km/h 12.9 km/h 86% 0 mm 0 W/m2
Bath Spa Weather
Compliments of Weather Underground - 2 mb